Main page
METAR-TAF:

METAR-TAF

Airports :

Watertown Municipal Airport

Watertown, Wisconsin, United States

latitude: 43-10N, longitude: 088-43W, elevation: 833 ft

Current weather observation

The report was made 26 minutes ago, at 20:35 UTC
Wind 16 mph from the South
Temperature 50°F
Humidity 40%
Pressure 30.03 in. Hg
Visibility: 10 miles
Broken clouds at a height of 4800 ft

METAR: KRYV 012035Z AUTO 17014KT 10SM BKN048 10/M03 A3003 RMK AO2 T00961032

Time: 15:01 (21:01 UTC)


TAF: missing

Weather observations and forecasts of more than 4000 airports (METAR and TAF reports).

The available stations are represented by yellow and red dots on the map.

Hover mouse over dot to see the name of the station.

Then click to see weather observations and forecasts.

To change the map : click on the green buttons with a black cross to zoom in, on the green button with a dash to zoom out, or on the green arrows for adjacent maps.


METAR-TAF: